createdAt,value
2022-11-28T00:00:14.324Z,1008.88
2022-11-28T00:01:14.301Z,1008.87
2022-11-28T00:02:14.430Z,1008.87
2022-11-28T00:03:14.389Z,1008.86
2022-11-28T00:04:14.653Z,1008.85
2022-11-28T00:05:14.285Z,1008.80
2022-11-28T00:06:14.961Z,1008.77
2022-11-28T00:07:15.149Z,1008.83
2022-11-28T00:08:14.252Z,1008.81
2022-11-28T00:09:14.203Z,1008.86
2022-11-28T00:10:14.315Z,1008.74
2022-11-28T00:11:14.183Z,1008.78
2022-11-28T00:12:14.164Z,1008.76
2022-11-28T00:13:14.899Z,1008.75
2022-11-28T00:14:14.125Z,1008.81
2022-11-28T00:15:14.182Z,1008.80
2022-11-28T00:16:14.761Z,1008.84
2022-11-28T00:17:14.117Z,1008.78
2022-11-28T00:18:14.232Z,1008.73
2022-11-28T00:19:14.094Z,1008.76
2022-11-28T00:20:14.067Z,1008.78
2022-11-28T00:21:14.056Z,1008.81
2022-11-28T00:22:14.056Z,1008.78
2022-11-28T00:23:14.017Z,1008.81
2022-11-28T00:24:14.294Z,1008.83
2022-11-28T00:25:19.198Z,1008.88
2022-11-28T00:26:13.996Z,1008.76
2022-11-28T00:27:13.971Z,1008.75
2022-11-28T00:28:14.069Z,1008.75
2022-11-28T00:29:13.943Z,1008.79
2022-11-28T00:30:14.218Z,1008.72
2022-11-28T00:31:14.005Z,1008.58
2022-11-28T00:32:14.030Z,1008.54
2022-11-28T00:33:14.169Z,1008.51
2022-11-28T00:34:13.925Z,1008.36
2022-11-28T00:35:13.954Z,1008.32
2022-11-28T00:36:13.864Z,1008.31
2022-11-28T00:37:13.851Z,1008.29
2022-11-28T00:38:13.842Z,1008.22
2022-11-28T00:39:13.848Z,1008.35
2022-11-28T00:40:13.851Z,1008.38
2022-11-28T00:41:13.812Z,1008.41
2022-11-28T00:42:13.819Z,1008.28
2022-11-28T00:43:13.772Z,1008.32
2022-11-28T00:44:14.028Z,1008.28
2022-11-28T00:45:13.753Z,1008.25
2022-11-28T00:46:13.971Z,1008.25
2022-11-28T00:47:13.983Z,1008.23
2022-11-28T00:48:13.983Z,1008.21
2022-11-28T00:49:13.704Z,1008.25
2022-11-28T00:50:13.995Z,1008.28
2022-11-28T00:51:13.943Z,1008.28
2022-11-28T00:52:13.724Z,1008.29
2022-11-28T00:53:13.665Z,1008.24
2022-11-28T00:54:13.626Z,1008.24
2022-11-28T00:55:13.636Z,1008.19
2022-11-28T00:56:13.604Z,1008.21
2022-11-28T00:57:13.897Z,1008.20
2022-11-28T00:58:13.638Z,1008.15
2022-11-28T00:59:13.574Z,1008.09
2022-11-28T01:00:13.827Z,1008.04
2022-11-28T01:01:13.737Z,1008.13
2022-11-28T01:02:13.606Z,1008.09
2022-11-28T01:03:13.524Z,1008.06
2022-11-28T01:04:13.908Z,1008.05
2022-11-28T01:05:13.497Z,1008.05
2022-11-28T01:06:13.479Z,1008.04
2022-11-28T01:07:13.550Z,1008.03
2022-11-28T01:08:13.487Z,1008.04
2022-11-28T01:09:13.467Z,1008.06
2022-11-28T01:10:13.459Z,1008.02
2022-11-28T01:11:13.427Z,1007.98
2022-11-28T01:12:13.401Z,1008.05
2022-11-28T01:13:13.419Z,1007.95
2022-11-28T01:14:13.660Z,1007.97
2022-11-28T01:15:13.371Z,1007.96
2022-11-28T01:16:13.530Z,1007.99
2022-11-28T01:17:13.349Z,1007.92
2022-11-28T01:18:13.332Z,1007.92
2022-11-28T01:19:17.349Z,1007.95
2022-11-28T01:20:13.331Z,1007.89
2022-11-28T01:21:13.293Z,1007.93
2022-11-28T01:22:13.302Z,1007.99
2022-11-28T01:23:13.310Z,1007.97
2022-11-28T01:24:13.282Z,1008.00
2022-11-28T01:25:13.252Z,1007.96
2022-11-28T01:26:13.233Z,1008.06
2022-11-28T01:27:13.223Z,1008.07
2022-11-28T01:28:13.245Z,1008.07
2022-11-28T01:29:13.214Z,1007.98
2022-11-28T01:30:13.198Z,1008.05
2022-11-28T01:31:13.217Z,1008.05
2022-11-28T01:32:13.186Z,1007.96
2022-11-28T01:33:13.165Z,1007.98
2022-11-28T01:34:13.241Z,1007.96
2022-11-28T01:35:13.124Z,1007.92
2022-11-28T01:36:13.796Z,1007.92
2022-11-28T01:37:13.096Z,1007.86
2022-11-28T01:38:13.088Z,1007.78
2022-11-28T01:39:13.119Z,1007.71
2022-11-28T01:40:13.419Z,1007.68
2022-11-28T01:41:13.049Z,1007.64
2022-11-28T01:42:16.928Z,1007.64
2022-11-28T01:43:13.068Z,1007.63
2022-11-28T01:44:13.018Z,1007.61
2022-11-28T01:45:12.999Z,1007.62
2022-11-28T01:46:13.090Z,1007.64
2022-11-28T01:47:13.733Z,1007.65
2022-11-28T01:48:12.952Z,1007.72
2022-11-28T01:49:12.957Z,1007.75
2022-11-28T01:50:12.949Z,1007.76
2022-11-28T01:51:12.950Z,1007.75
2022-11-28T01:52:13.030Z,1007.63
2022-11-28T01:53:12.914Z,1007.68
2022-11-28T01:54:12.891Z,1007.62
2022-11-28T01:55:12.914Z,1007.60
2022-11-28T01:56:17.893Z,1007.61
2022-11-28T01:57:12.849Z,1007.56
2022-11-28T01:58:16.921Z,1007.63
2022-11-28T01:59:12.832Z,1007.60
2022-11-28T02:00:12.821Z,1007.52
2022-11-28T02:01:17.039Z,1007.66
2022-11-28T02:02:13.734Z,1007.62
2022-11-28T02:03:12.776Z,1007.66
2022-11-28T02:04:12.823Z,1007.68
2022-11-28T02:05:12.767Z,1007.62
2022-11-28T02:06:12.743Z,1007.64
2022-11-28T02:07:12.758Z,1007.59
2022-11-28T02:08:13.024Z,1007.60
2022-11-28T02:09:12.706Z,1007.50
2022-11-28T02:10:12.975Z,1007.48
2022-11-28T02:11:12.715Z,1007.51
2022-11-28T02:12:12.674Z,1007.49
2022-11-28T02:13:12.687Z,1007.51
2022-11-28T02:14:12.808Z,1007.48
2022-11-28T02:15:12.628Z,1007.44
2022-11-28T02:16:12.777Z,1007.55
2022-11-28T02:17:12.845Z,1007.50
2022-11-28T02:18:12.631Z,1007.57
2022-11-28T02:19:13.278Z,1007.50
2022-11-28T02:20:13.340Z,1007.50
2022-11-28T02:21:12.571Z,1007.49
2022-11-28T02:22:12.672Z,1007.53
2022-11-28T02:23:12.551Z,1007.49
2022-11-28T02:24:12.539Z,1007.46
2022-11-28T02:25:12.765Z,1007.48
2022-11-28T02:26:12.493Z,1007.46
2022-11-28T02:27:12.482Z,1007.54
2022-11-28T02:28:12.520Z,1007.54
2022-11-28T02:29:12.450Z,1007.50
2022-11-28T02:30:12.440Z,1007.50
2022-11-28T02:31:16.361Z,1007.49
2022-11-28T02:32:12.402Z,1007.47
2022-11-28T02:33:12.412Z,1007.47
2022-11-28T02:34:12.443Z,1007.48
2022-11-28T02:35:12.655Z,1007.48
2022-11-28T02:36:12.369Z,1007.46
2022-11-28T02:37:12.362Z,1007.45
2022-11-28T02:38:13.111Z,1007.46
2022-11-28T02:39:12.323Z,1007.49
2022-11-28T02:40:12.433Z,1007.52
2022-11-28T02:41:16.094Z,1007.52
2022-11-28T02:42:12.304Z,1007.49
2022-11-28T02:43:12.278Z,1007.50
2022-11-28T02:44:12.264Z,1007.53
2022-11-28T02:45:12.263Z,1007.53
2022-11-28T02:46:12.264Z,1007.45
2022-11-28T02:47:12.250Z,1007.59
2022-11-28T02:48:12.484Z,1007.48
2022-11-28T02:49:12.204Z,1007.48
2022-11-28T02:50:12.196Z,1007.42
2022-11-28T02:51:12.166Z,1007.37
2022-11-28T02:52:12.342Z,1007.47
2022-11-28T02:53:12.157Z,1007.41
2022-11-28T02:54:12.211Z,1007.40
2022-11-28T02:55:12.119Z,1007.37
2022-11-28T02:56:12.878Z,1007.44
2022-11-28T02:57:12.087Z,1007.40
2022-11-28T02:58:12.457Z,1007.43
2022-11-28T02:59:12.090Z,1007.34
2022-11-28T03:00:16.576Z,1007.31
2022-11-28T03:01:13.249Z,1007.28
2022-11-28T03:02:12.061Z,1007.33
2022-11-28T03:03:12.009Z,1007.30
2022-11-28T03:04:12.693Z,1007.26
2022-11-28T03:05:12.006Z,1007.35
2022-11-28T03:06:16.315Z,1007.27
2022-11-28T03:07:12.398Z,1007.26
2022-11-28T03:08:11.970Z,1007.24
2022-11-28T03:09:12.010Z,1007.23
2022-11-28T03:10:12.891Z,1007.33
2022-11-28T03:11:12.294Z,1007.30
2022-11-28T03:12:11.903Z,1007.24
2022-11-28T03:13:12.631Z,1007.27
2022-11-28T03:14:11.883Z,1007.29
2022-11-28T03:15:12.754Z,1007.29
2022-11-28T03:16:11.921Z,1007.34
2022-11-28T03:17:12.109Z,1007.31
2022-11-28T03:18:11.852Z,1007.36
2022-11-28T03:19:11.805Z,1007.34
2022-11-28T03:20:11.802Z,1007.35
2022-11-28T03:21:11.931Z,1007.32
2022-11-28T03:22:12.594Z,1007.29
2022-11-28T03:23:15.688Z,1007.36
2022-11-28T03:24:12.704Z,1007.30
2022-11-28T03:25:11.734Z,1007.38
2022-11-28T03:26:11.725Z,1007.37
2022-11-28T03:27:15.676Z,1007.39
2022-11-28T03:28:11.703Z,1007.43
2022-11-28T03:29:11.954Z,1007.39
2022-11-28T03:30:11.667Z,1007.44
2022-11-28T03:31:11.957Z,1007.36
2022-11-28T03:32:11.645Z,1007.39
2022-11-28T03:33:12.008Z,1007.45
2022-11-28T03:34:12.406Z,1007.48
2022-11-28T03:35:12.409Z,1007.53
2022-11-28T03:36:11.589Z,1007.50
2022-11-28T03:37:11.629Z,1007.42
2022-11-28T03:38:11.570Z,1007.46
2022-11-28T03:39:11.587Z,1007.47
2022-11-28T03:40:11.578Z,1007.49
2022-11-28T03:41:11.552Z,1007.52
2022-11-28T03:42:11.789Z,1007.56
2022-11-28T03:43:11.779Z,1007.57
2022-11-28T03:44:11.500Z,1007.54
2022-11-28T03:45:11.500Z,1007.53
2022-11-28T03:46:12.480Z,1007.57
2022-11-28T03:47:11.849Z,1007.49
2022-11-28T03:48:11.635Z,1007.45
2022-11-28T03:49:11.430Z,1007.48
2022-11-28T03:50:11.698Z,1007.41
2022-11-28T03:51:11.452Z,1007.51
2022-11-28T03:52:11.572Z,1007.41
2022-11-28T03:53:11.382Z,1007.39
2022-11-28T03:54:12.202Z,1007.37
2022-11-28T03:55:11.357Z,1007.41
2022-11-28T03:56:11.419Z,1007.42
2022-11-28T03:57:12.115Z,1007.40
2022-11-28T03:58:11.324Z,1007.40
2022-11-28T03:59:11.314Z,1007.35
2022-11-28T04:00:11.302Z,1007.44
2022-11-28T04:01:11.373Z,1007.41
2022-11-28T04:02:11.275Z,1007.39
2022-11-28T04:03:11.457Z,1007.40
2022-11-28T04:04:11.327Z,1007.36
2022-11-28T04:05:11.234Z,1007.32
2022-11-28T04:06:11.237Z,1007.34
2022-11-28T04:07:11.208Z,1007.35
2022-11-28T04:08:11.209Z,1007.39
2022-11-28T04:09:14.413Z,1007.40
2022-11-28T04:10:11.177Z,1007.33
2022-11-28T04:11:11.167Z,1007.33
2022-11-28T04:12:11.162Z,1007.40
2022-11-28T04:13:15.230Z,1007.44
2022-11-28T04:14:15.139Z,1007.43
2022-11-28T04:15:11.109Z,1007.39
2022-11-28T04:16:11.146Z,1007.42
2022-11-28T04:17:11.088Z,1007.45
2022-11-28T04:18:11.069Z,1007.46
2022-11-28T04:19:11.340Z,1007.39
2022-11-28T04:20:11.989Z,1007.37
2022-11-28T04:21:11.089Z,1007.40
2022-11-28T04:22:11.045Z,1007.41
2022-11-28T04:23:11.003Z,1007.39
2022-11-28T04:24:14.944Z,1007.38
2022-11-28T04:25:10.992Z,1007.35
2022-11-28T04:26:11.082Z,1007.43
2022-11-28T04:27:10.979Z,1007.40
2022-11-28T04:28:10.947Z,1007.42
2022-11-28T04:29:10.933Z,1007.40
2022-11-28T04:30:10.940Z,1007.40
2022-11-28T04:31:11.257Z,1007.40
2022-11-28T04:32:11.195Z,1007.42
2022-11-28T04:33:10.873Z,1007.40
2022-11-28T04:34:10.895Z,1007.35
2022-11-28T04:35:11.635Z,1007.41
2022-11-28T04:36:11.865Z,1007.36
2022-11-28T04:37:11.124Z,1007.40
2022-11-28T04:38:10.934Z,1007.37
2022-11-28T04:39:10.823Z,1007.37
2022-11-28T04:40:11.069Z,1007.35
2022-11-28T04:41:12.508Z,1007.28
2022-11-28T04:42:10.788Z,1007.26
2022-11-28T04:43:11.226Z,1007.28
2022-11-28T04:44:11.116Z,1007.34
2022-11-28T04:45:10.746Z,1007.22
2022-11-28T04:46:10.800Z,1007.16
2022-11-28T04:47:10.737Z,1007.22
2022-11-28T04:48:10.967Z,1007.38
2022-11-28T04:49:10.678Z,1007.21
2022-11-28T04:50:10.959Z,1007.26
2022-11-28T04:51:10.946Z,1007.22
2022-11-28T04:52:10.659Z,1007.30
2022-11-28T04:53:10.641Z,1007.23
2022-11-28T04:54:10.629Z,1007.26
2022-11-28T04:55:10.598Z,1007.22
2022-11-28T04:56:10.620Z,1007.28
2022-11-28T04:57:10.580Z,1007.31
2022-11-28T04:58:10.580Z,1007.28
2022-11-28T04:59:15.170Z,1007.25
2022-11-28T05:00:11.391Z,1007.35
2022-11-28T05:01:10.868Z,1007.26
2022-11-28T05:02:11.431Z,1007.25
2022-11-28T05:03:10.500Z,1007.29
2022-11-28T05:04:10.561Z,1007.21
2022-11-28T05:05:10.541Z,1007.28
2022-11-28T05:06:10.741Z,1007.22
2022-11-28T05:07:10.594Z,1007.27
2022-11-28T05:08:10.470Z,1007.19
2022-11-28T05:09:10.703Z,1007.27
2022-11-28T05:10:11.213Z,1007.23
2022-11-28T05:11:10.406Z,1007.26
2022-11-28T05:12:10.708Z,1007.26
2022-11-28T05:13:10.386Z,1007.26
2022-11-28T05:14:10.782Z,1007.32
2022-11-28T05:15:10.635Z,1007.32
2022-11-28T05:16:10.407Z,1007.22
2022-11-28T05:17:10.336Z,1007.27
2022-11-28T05:18:10.855Z,1007.19
2022-11-28T05:19:10.316Z,1007.28
2022-11-28T05:20:10.954Z,1007.32
2022-11-28T05:21:10.295Z,1007.25
2022-11-28T05:22:10.969Z,1007.29
2022-11-28T05:23:10.246Z,1007.28
2022-11-28T05:24:10.528Z,1007.33
2022-11-28T05:25:10.262Z,1007.33
2022-11-28T05:26:10.425Z,1007.29
2022-11-28T05:27:10.225Z,1007.39
2022-11-28T05:28:10.279Z,1007.29
2022-11-28T05:29:10.177Z,1007.32
2022-11-28T05:30:10.255Z,1007.38
2022-11-28T05:31:11.009Z,1007.34
2022-11-28T05:32:10.148Z,1007.37
2022-11-28T05:33:10.149Z,1007.32
2022-11-28T05:34:10.118Z,1007.32
2022-11-28T05:35:10.411Z,1007.37
2022-11-28T05:36:13.099Z,1007.32
2022-11-28T05:37:11.012Z,1007.33
2022-11-28T05:38:13.572Z,1007.28
2022-11-28T05:39:10.071Z,1007.34
2022-11-28T05:40:10.129Z,1007.36
2022-11-28T05:41:10.872Z,1007.28
2022-11-28T05:42:10.021Z,1007.29
2022-11-28T05:43:10.402Z,1007.30
2022-11-28T05:44:10.750Z,1007.29
2022-11-28T05:45:14.594Z,1007.32
2022-11-28T05:46:10.291Z,1007.29
2022-11-28T05:47:09.963Z,1007.34
2022-11-28T05:48:09.953Z,1007.32
2022-11-28T05:49:10.092Z,1007.30
2022-11-28T05:50:15.393Z,1007.41
2022-11-28T05:51:10.725Z,1007.42
2022-11-28T05:52:09.894Z,1007.40
2022-11-28T05:53:10.114Z,1007.38
2022-11-28T05:54:14.495Z,1007.31
2022-11-28T05:55:10.134Z,1007.39
2022-11-28T05:56:09.864Z,1007.41
2022-11-28T05:57:10.654Z,1007.44
2022-11-28T05:58:10.806Z,1007.43
2022-11-28T05:59:09.917Z,1007.38
2022-11-28T06:00:10.228Z,1007.36
2022-11-28T06:01:09.967Z,1007.46
2022-11-28T06:02:09.848Z,1007.41
2022-11-28T06:03:09.797Z,1007.46
2022-11-28T06:04:09.864Z,1007.46
2022-11-28T06:05:40.344Z,1007.49
2022-11-28T06:06:10.829Z,1007.40
2022-11-28T06:07:10.151Z,1007.45
2022-11-28T06:08:09.688Z,1007.45
2022-11-28T06:09:14.094Z,1007.41
2022-11-28T06:10:09.869Z,1007.39
2022-11-28T06:11:10.489Z,1007.50
2022-11-28T06:12:10.262Z,1007.44
2022-11-28T06:13:10.279Z,1007.45
2022-11-28T06:14:10.207Z,1007.46
2022-11-28T06:15:10.341Z,1007.51
2022-11-28T06:16:10.630Z,1007.52
2022-11-28T06:17:10.312Z,1007.41
2022-11-28T06:18:09.961Z,1007.46
2022-11-28T06:19:09.564Z,1007.49
2022-11-28T06:20:11.352Z,1007.47
2022-11-28T06:21:10.333Z,1007.43
2022-11-28T06:22:09.516Z,1007.45
2022-11-28T06:23:09.514Z,1007.43
2022-11-28T06:24:09.710Z,1007.43
2022-11-28T06:25:10.276Z,1007.42
2022-11-28T06:26:10.124Z,1007.44
2022-11-28T06:27:09.452Z,1007.44
2022-11-28T06:28:09.456Z,1007.40
2022-11-28T06:29:09.713Z,1007.45
2022-11-28T06:30:10.417Z,1007.49
2022-11-28T06:31:09.444Z,1007.50
2022-11-28T06:32:09.504Z,1007.50
2022-11-28T06:33:09.390Z,1007.53
2022-11-28T06:34:09.660Z,1007.50
2022-11-28T06:35:09.345Z,1007.44
2022-11-28T06:36:09.390Z,1007.50
2022-11-28T06:37:10.859Z,1007.53
2022-11-28T06:38:14.506Z,1007.55
2022-11-28T06:39:09.332Z,1007.51
2022-11-28T06:40:09.492Z,1007.52
2022-11-28T06:41:10.006Z,1007.50
2022-11-28T06:42:09.452Z,1007.46
2022-11-28T06:43:09.448Z,1007.54
2022-11-28T06:44:09.438Z,1007.51
2022-11-28T06:45:09.445Z,1007.47
2022-11-28T06:46:14.553Z,1007.53
2022-11-28T06:47:11.102Z,1007.51
2022-11-28T06:48:09.444Z,1007.50
2022-11-28T06:49:09.188Z,1007.51
2022-11-28T06:50:09.598Z,1007.56
2022-11-28T06:51:09.240Z,1007.52
2022-11-28T06:52:09.240Z,1007.57
2022-11-28T06:53:09.157Z,1007.49
2022-11-28T06:54:09.329Z,1007.59
2022-11-28T06:55:09.108Z,1007.53
2022-11-28T06:56:09.379Z,1007.60
2022-11-28T06:57:09.400Z,1007.60
2022-11-28T06:58:09.548Z,1007.54
2022-11-28T06:59:09.422Z,1007.57
2022-11-28T07:00:09.051Z,1007.57
2022-11-28T07:01:10.116Z,1007.62
2022-11-28T07:02:09.297Z,1007.54
2022-11-28T07:03:09.151Z,1007.54
2022-11-28T07:04:09.022Z,1007.53
2022-11-28T07:05:09.116Z,1007.51
2022-11-28T07:06:09.063Z,1007.50
2022-11-28T07:07:12.522Z,1007.59
2022-11-28T07:08:10.000Z,1007.54
2022-11-28T07:09:09.275Z,1007.56
2022-11-28T07:10:09.365Z,1007.56
2022-11-28T07:11:10.873Z,1007.61
2022-11-28T07:12:08.926Z,1007.66
2022-11-28T07:13:10.168Z,1007.66
2022-11-28T07:14:08.915Z,1007.64
2022-11-28T07:15:08.898Z,1007.62
2022-11-28T07:16:08.997Z,1007.67
2022-11-28T07:17:09.026Z,1007.63
2022-11-28T07:18:08.928Z,1007.67
2022-11-28T07:19:08.924Z,1007.64
2022-11-28T07:20:08.926Z,1007.61
2022-11-28T07:21:08.886Z,1007.67
2022-11-28T07:22:08.778Z,1007.65
2022-11-28T07:23:08.988Z,1007.70
2022-11-28T07:24:09.779Z,1007.73
2022-11-28T07:25:09.688Z,1007.68
2022-11-28T07:26:09.128Z,1007.70
2022-11-28T07:27:08.969Z,1007.67
2022-11-28T07:28:08.822Z,1007.76
2022-11-28T07:29:08.799Z,1007.72
2022-11-28T07:30:08.830Z,1007.73
2022-11-28T07:31:08.720Z,1007.72
2022-11-28T07:32:08.685Z,1007.67
2022-11-28T07:33:09.132Z,1007.73
2022-11-28T07:34:08.857Z,1007.69
2022-11-28T07:35:09.061Z,1007.71
2022-11-28T07:36:08.591Z,1007.71
2022-11-28T07:37:08.973Z,1007.65
2022-11-28T07:38:08.869Z,1007.77
2022-11-28T07:39:08.620Z,1007.69
2022-11-28T07:40:08.798Z,1007.76
2022-11-28T07:41:08.633Z,1007.74
2022-11-28T07:42:08.901Z,1007.77
2022-11-28T07:43:09.263Z,1007.81
2022-11-28T07:44:08.534Z,1007.79
2022-11-28T07:45:08.909Z,1007.78
2022-11-28T07:46:08.597Z,1007.81
2022-11-28T07:47:08.691Z,1007.82
2022-11-28T07:48:08.796Z,1007.84
2022-11-28T07:49:08.815Z,1007.83
2022-11-28T07:50:08.556Z,1007.86
2022-11-28T07:51:09.216Z,1007.83
2022-11-28T07:52:08.875Z,1007.92
2022-11-28T07:53:08.648Z,1007.95
2022-11-28T07:54:08.355Z,1007.84
2022-11-28T07:55:08.375Z,1007.91
2022-11-28T07:56:08.656Z,1007.87
2022-11-28T07:57:12.392Z,1007.86
2022-11-28T07:58:08.327Z,1007.94
2022-11-28T07:59:08.438Z,1007.90
2022-11-28T08:00:08.313Z,1007.90
2022-11-28T08:01:08.489Z,1007.88
2022-11-28T08:02:08.896Z,1007.92
2022-11-28T08:03:08.267Z,1007.88
2022-11-28T08:04:08.584Z,1007.98
2022-11-28T08:05:08.360Z,1007.88
2022-11-28T08:06:08.551Z,1007.89
2022-11-28T08:07:08.287Z,1007.83
2022-11-28T08:08:08.608Z,1007.87
2022-11-28T08:09:08.171Z,1007.85
2022-11-28T08:10:08.610Z,1007.90
2022-11-28T08:11:08.604Z,1007.82
2022-11-28T08:12:08.198Z,1007.88
2022-11-28T08:13:08.651Z,1007.84
2022-11-28T08:14:08.150Z,1007.80
2022-11-28T08:15:08.343Z,1007.91
2022-11-28T08:16:08.465Z,1007.87
2022-11-28T08:17:08.615Z,1007.91
2022-11-28T08:18:08.610Z,1007.87
2022-11-28T08:19:08.050Z,1007.84
2022-11-28T08:20:08.244Z,1007.85
2022-11-28T08:21:08.253Z,1007.82
2022-11-28T08:22:08.223Z,1007.89
2022-11-28T08:23:08.324Z,1007.89
2022-11-28T08:24:08.455Z,1007.84
2022-11-28T08:25:08.645Z,1007.95
2022-11-28T08:26:08.134Z,1007.85
2022-11-28T08:27:08.044Z,1007.87
2022-11-28T08:28:08.083Z,1007.88
2022-11-28T08:29:08.515Z,1007.84
2022-11-28T08:30:08.118Z,1007.94
2022-11-28T08:31:08.779Z,1007.86
2022-11-28T08:32:08.437Z,1007.91
2022-11-28T08:33:08.344Z,1007.93
2022-11-28T08:34:08.487Z,1007.82
2022-11-28T08:35:08.775Z,1007.87
2022-11-28T08:36:11.348Z,1007.89
2022-11-28T08:37:07.892Z,1007.84
2022-11-28T08:38:08.627Z,1007.82
2022-11-28T08:39:23.560Z,1007.82
2022-11-28T08:40:08.866Z,1007.88
2022-11-28T08:41:07.940Z,1007.83
2022-11-28T08:42:08.147Z,1007.82
2022-11-28T08:43:08.148Z,1007.80
2022-11-28T08:44:08.414Z,1007.79
2022-11-28T08:45:07.799Z,1007.77
2022-11-28T08:46:08.676Z,1007.82
2022-11-28T08:47:08.019Z,1007.81
2022-11-28T08:48:07.877Z,1007.81
2022-11-28T08:49:08.060Z,1007.78
2022-11-28T08:50:08.305Z,1007.79
2022-11-28T08:51:08.473Z,1007.85
2022-11-28T08:52:07.782Z,1007.83
2022-11-28T08:53:08.053Z,1007.81
2022-11-28T08:54:07.803Z,1007.78
2022-11-28T08:55:07.644Z,1007.73
2022-11-28T08:56:07.875Z,1007.79
2022-11-28T08:57:07.925Z,1007.72
2022-11-28T08:58:08.173Z,1007.72
2022-11-28T08:59:08.356Z,1007.67
2022-11-28T09:00:07.844Z,1007.74
2022-11-28T09:01:07.864Z,1007.79
2022-11-28T09:02:07.514Z,1007.70
2022-11-28T09:03:08.014Z,1007.74
2022-11-28T09:04:07.791Z,1007.75
2022-11-28T09:05:07.895Z,1007.73
2022-11-28T09:06:07.675Z,1007.78
2022-11-28T09:07:07.437Z,1007.75
2022-11-28T09:08:10.413Z,1007.75
2022-11-28T09:09:07.416Z,1007.78
2022-11-28T09:10:07.516Z,1007.79
2022-11-28T09:11:07.394Z,1007.76
2022-11-28T09:12:08.087Z,1007.80
2022-11-28T09:13:07.369Z,1007.84
2022-11-28T09:14:07.357Z,1007.86
2022-11-28T09:15:07.522Z,1007.81
2022-11-28T09:16:07.470Z,1007.84
2022-11-28T09:17:07.393Z,1007.87
2022-11-28T09:18:07.298Z,1007.83
2022-11-28T09:19:07.629Z,1007.87
2022-11-28T09:20:07.319Z,1007.88
2022-11-28T09:21:07.271Z,1007.88
2022-11-28T09:22:07.976Z,1007.86
2022-11-28T09:23:07.325Z,1007.88
2022-11-28T09:24:08.171Z,1007.95
2022-11-28T09:25:07.331Z,1007.87
2022-11-28T09:26:08.149Z,1007.88
2022-11-28T09:27:09.653Z,1007.88
2022-11-28T09:28:07.274Z,1007.94
2022-11-28T09:29:07.816Z,1007.88
2022-11-28T09:30:07.193Z,1007.92
2022-11-28T09:31:07.284Z,1007.92
2022-11-28T09:32:07.211Z,1007.94
2022-11-28T09:33:07.202Z,1007.88
2022-11-28T09:34:07.243Z,1007.92
2022-11-28T09:35:07.313Z,1007.92
2022-11-28T09:36:07.331Z,1007.97
2022-11-28T09:37:07.056Z,1007.99
2022-11-28T09:38:07.304Z,1007.97
2022-11-28T09:39:07.164Z,1008.03
2022-11-28T09:40:14.365Z,1007.98
2022-11-28T09:41:08.004Z,1007.97
2022-11-28T09:42:07.346Z,1008.08
2022-11-28T09:43:07.360Z,1008.01
2022-11-28T09:44:07.343Z,1008.03
2022-11-28T09:45:06.938Z,1008.09
2022-11-28T09:46:07.392Z,1008.07
2022-11-28T09:47:07.636Z,1008.03
2022-11-28T09:48:07.298Z,1008.08
2022-11-28T09:49:07.297Z,1008.08
2022-11-28T09:50:07.287Z,1008.07
2022-11-28T09:51:07.296Z,1008.05
2022-11-28T09:52:07.001Z,1008.04
2022-11-28T09:53:07.300Z,1007.99
2022-11-28T09:54:06.868Z,1008.05
2022-11-28T09:55:07.291Z,1008.09
2022-11-28T09:56:07.117Z,1007.99
2022-11-28T09:57:07.191Z,1008.02
2022-11-28T09:58:07.301Z,1007.98
2022-11-28T09:59:07.733Z,1008.04
2022-11-28T10:00:07.340Z,1008.03
2022-11-28T10:01:07.163Z,1008.05
2022-11-28T10:02:07.330Z,1008.08
2022-11-28T10:03:07.722Z,1008.09
2022-11-28T10:04:07.405Z,1008.09
2022-11-28T10:05:06.838Z,1008.05
2022-11-28T10:06:07.628Z,1008.09
2022-11-28T10:07:06.891Z,1008.07
2022-11-28T10:08:07.348Z,1008.05
2022-11-28T10:09:07.283Z,1008.02
2022-11-28T10:10:07.032Z,1007.99
2022-11-28T10:11:07.577Z,1008.01
2022-11-28T10:12:07.112Z,1007.98
2022-11-28T10:13:07.277Z,1007.98
2022-11-28T10:14:08.614Z,1007.93
2022-11-28T10:15:07.054Z,1007.94
2022-11-28T10:16:07.345Z,1007.94
2022-11-28T10:17:06.584Z,1007.99
2022-11-28T10:18:06.566Z,1007.99
2022-11-28T10:19:09.903Z,1007.94
2022-11-28T10:20:08.138Z,1007.92
2022-11-28T10:21:06.488Z,1007.97
2022-11-28T10:22:06.468Z,1007.94
2022-11-28T10:23:06.466Z,1007.94
2022-11-28T10:24:06.457Z,1007.89
2022-11-28T10:25:06.503Z,1007.93
2022-11-28T10:26:06.621Z,1007.95
2022-11-28T10:27:06.458Z,1007.89
2022-11-28T10:28:06.568Z,1007.95
2022-11-28T10:29:06.762Z,1008.05
2022-11-28T10:30:06.753Z,1008.00
2022-11-28T10:31:06.832Z,1007.96
2022-11-28T10:32:06.839Z,1007.89
2022-11-28T10:33:06.628Z,1007.95
2022-11-28T10:34:06.309Z,1007.96
2022-11-28T10:35:06.529Z,1007.92
2022-11-28T10:36:06.291Z,1008.00
2022-11-28T10:37:06.873Z,1007.99
2022-11-28T10:38:06.646Z,1008.01
2022-11-28T10:39:11.108Z,1008.01
2022-11-28T10:40:06.250Z,1008.00
2022-11-28T10:41:06.236Z,1007.97
2022-11-28T10:42:06.904Z,1007.98
2022-11-28T10:43:06.234Z,1008.04
2022-11-28T10:44:06.376Z,1008.00
2022-11-28T10:45:06.962Z,1007.99
2022-11-28T10:46:07.049Z,1007.99
2022-11-28T10:47:06.163Z,1007.97
2022-11-28T10:48:29.893Z,1007.99
2022-11-28T10:49:07.258Z,1008.04
2022-11-28T10:50:06.335Z,1008.01
2022-11-28T10:51:06.437Z,1008.00
2022-11-28T10:52:06.088Z,1008.00
2022-11-28T10:53:07.027Z,1008.01
2022-11-28T10:54:07.106Z,1008.07
2022-11-28T10:55:06.079Z,1008.03
2022-11-28T10:56:11.117Z,1008.07
2022-11-28T10:57:07.987Z,1008.04
2022-11-28T10:58:06.276Z,1008.03
2022-11-28T10:59:07.025Z,1008.03
2022-11-28T11:00:06.147Z,1008.01
2022-11-28T11:01:06.038Z,1008.04
2022-11-28T11:02:06.232Z,1008.05
2022-11-28T11:03:06.090Z,1007.96
2022-11-28T11:04:06.083Z,1007.98
2022-11-28T11:05:06.158Z,1007.97
2022-11-28T11:06:07.158Z,1007.94
2022-11-28T11:07:11.228Z,1007.99
2022-11-28T11:08:07.271Z,1007.96
2022-11-28T11:09:06.670Z,1007.89
2022-11-28T11:10:06.660Z,1007.88
2022-11-28T11:11:06.642Z,1007.95
2022-11-28T11:12:05.979Z,1007.94
2022-11-28T11:13:06.612Z,1007.88
2022-11-28T11:14:06.572Z,1007.87
2022-11-28T11:15:06.626Z,1007.91
2022-11-28T11:16:06.417Z,1007.91
2022-11-28T11:17:06.256Z,1007.90
2022-11-28T11:18:06.146Z,1007.90
2022-11-28T11:19:06.424Z,1007.91
2022-11-28T11:20:06.274Z,1007.87
2022-11-28T11:21:05.715Z,1007.94
2022-11-28T11:22:05.702Z,1007.95
2022-11-28T11:23:05.697Z,1007.95
2022-11-28T11:24:10.465Z,1007.89
2022-11-28T11:25:05.916Z,1007.92
2022-11-28T11:26:06.177Z,1007.92
2022-11-28T11:27:05.606Z,1007.93
2022-11-28T11:28:05.625Z,1007.93
2022-11-28T11:29:05.641Z,1007.90
2022-11-28T11:30:06.016Z,1007.90
2022-11-28T11:31:05.803Z,1007.91
2022-11-28T11:32:05.680Z,1007.94
2022-11-28T11:33:06.101Z,1007.87
2022-11-28T11:34:05.721Z,1007.89
2022-11-28T11:35:05.718Z,1007.87
2022-11-28T11:36:05.499Z,1007.88
2022-11-28T11:37:06.329Z,1007.93
2022-11-28T11:38:06.529Z,1007.86
2022-11-28T11:39:05.528Z,1007.82
2022-11-28T11:40:05.509Z,1007.81
2022-11-28T11:41:05.442Z,1007.82
2022-11-28T11:42:05.530Z,1007.82
2022-11-28T11:43:05.492Z,1007.85
2022-11-28T11:44:05.431Z,1007.83
2022-11-28T11:45:05.391Z,1007.86
2022-11-28T11:46:05.578Z,1007.96
2022-11-28T11:47:05.920Z,1007.78
2022-11-28T11:48:05.574Z,1007.81
2022-11-28T11:49:05.450Z,1007.86
2022-11-28T11:50:05.592Z,1007.81
2022-11-28T11:51:06.000Z,1007.83
2022-11-28T11:52:05.540Z,1007.86
2022-11-28T11:53:05.794Z,1007.79
2022-11-28T11:54:05.606Z,1007.81
2022-11-28T11:55:06.044Z,1007.84
2022-11-28T11:56:05.384Z,1007.84
2022-11-28T11:57:31.227Z,1007.87
2022-11-28T11:58:06.417Z,1007.84
2022-11-28T11:59:05.204Z,1007.80
2022-11-28T12:00:05.195Z,1007.84
2022-11-28T12:01:05.205Z,1007.78
2022-11-28T12:02:05.318Z,1007.79
2022-11-28T12:03:05.298Z,1007.79
2022-11-28T12:04:23.742Z,1007.75
2022-11-28T12:05:06.179Z,1007.86